sensor_id;sensor_type;location;lat;lon;timestamp;P1;durP1;ratioP1;P2;durP2;ratioP2
21018;SDS011;10667;51.056;3.732;2023-11-21T00:00:46;28.00;;;16.10;;
21018;SDS011;10667;51.056;3.732;2023-11-21T00:03:12;23.35;;;15.48;;
21018;SDS011;10667;51.056;3.732;2023-11-21T00:05:40;27.95;;;15.93;;
21018;SDS011;10667;51.056;3.732;2023-11-21T00:08:07;28.50;;;16.05;;
21018;SDS011;10667;51.056;3.732;2023-11-21T00:10:33;25.25;;;14.77;;
21018;SDS011;10667;51.056;3.732;2023-11-21T00:12:59;22.60;;;14.55;;
21018;SDS011;10667;51.056;3.732;2023-11-21T00:15:27;26.77;;;14.88;;
21018;SDS011;10667;51.056;3.732;2023-11-21T00:17:53;21.42;;;13.82;;
21018;SDS011;10667;51.056;3.732;2023-11-21T00:20:19;21.60;;;13.35;;
21018;SDS011;10667;51.056;3.732;2023-11-21T00:22:45;26.05;;;14.98;;
21018;SDS011;10667;51.056;3.732;2023-11-21T00:25:11;21.92;;;14.38;;
21018;SDS011;10667;51.056;3.732;2023-11-21T00:27:39;26.95;;;14.82;;
21018;SDS011;10667;51.056;3.732;2023-11-21T00:30:06;20.55;;;14.00;;
21018;SDS011;10667;51.056;3.732;2023-11-21T00:32:34;29.35;;;15.10;;
21018;SDS011;10667;51.056;3.732;2023-11-21T00:35:01;25.15;;;14.75;;
21018;SDS011;10667;51.056;3.732;2023-11-21T00:37:26;29.75;;;16.13;;
21018;SDS011;10667;51.056;3.732;2023-11-21T00:39:52;28.33;;;15.13;;
21018;SDS011;10667;51.056;3.732;2023-11-21T00:42:18;27.33;;;15.35;;
21018;SDS011;10667;51.056;3.732;2023-11-21T00:44:44;22.38;;;14.60;;
21018;SDS011;10667;51.056;3.732;2023-11-21T00:47:09;24.80;;;14.80;;
21018;SDS011;10667;51.056;3.732;2023-11-21T00:49:35;22.15;;;15.13;;
21018;SDS011;10667;51.056;3.732;2023-11-21T00:52:01;25.67;;;15.30;;
21018;SDS011;10667;51.056;3.732;2023-11-21T00:54:27;26.10;;;14.77;;
21018;SDS011;10667;51.056;3.732;2023-11-21T00:56:53;28.42;;;14.45;;
21018;SDS011;10667;51.056;3.732;2023-11-21T00:59:19;31.85;;;14.15;;
21018;SDS011;10667;51.056;3.732;2023-11-21T01:01:44;21.90;;;14.20;;
21018;SDS011;10667;51.056;3.732;2023-11-21T01:04:10;29.67;;;14.15;;
21018;SDS011;10667;51.056;3.732;2023-11-21T01:06:36;20.27;;;13.88;;
21018;SDS011;10667;51.056;3.732;2023-11-21T01:09:01;21.27;;;12.90;;
21018;SDS011;10667;51.056;3.732;2023-11-21T01:11:32;22.55;;;12.93;;
21018;SDS011;10667;51.056;3.732;2023-11-21T01:14:01;25.45;;;12.85;;
21018;SDS011;10667;51.056;3.732;2023-11-21T01:16:28;27.38;;;14.20;;
21018;SDS011;10667;51.056;3.732;2023-11-21T01:18:54;21.20;;;13.35;;
21018;SDS011;10667;51.056;3.732;2023-11-21T01:21:20;22.65;;;12.63;;
21018;SDS011;10667;51.056;3.732;2023-11-21T01:23:45;25.17;;;12.70;;
21018;SDS011;10667;51.056;3.732;2023-11-21T01:26:12;20.25;;;12.80;;
21018;SDS011;10667;51.056;3.732;2023-11-21T01:28:38;22.20;;;12.23;;
21018;SDS011;10667;51.056;3.732;2023-11-21T01:31:04;22.05;;;12.48;;
21018;SDS011;10667;51.056;3.732;2023-11-21T01:33:29;23.02;;;12.45;;
21018;SDS011;10667;51.056;3.732;2023-11-21T01:35:55;22.73;;;12.00;;
21018;SDS011;10667;51.056;3.732;2023-11-21T01:38:21;19.38;;;12.38;;
21018;SDS011;10667;51.056;3.732;2023-11-21T01:40:47;26.10;;;13.77;;
21018;SDS011;10667;51.056;3.732;2023-11-21T01:43:13;23.17;;;13.35;;
21018;SDS011;10667;51.056;3.732;2023-11-21T01:45:38;21.83;;;12.38;;
21018;SDS011;10667;51.056;3.732;2023-11-21T01:48:04;23.08;;;13.43;;
21018;SDS011;10667;51.056;3.732;2023-11-21T01:50:32;22.17;;;12.52;;
21018;SDS011;10667;51.056;3.732;2023-11-21T01:52:58;23.77;;;12.63;;
21018;SDS011;10667;51.056;3.732;2023-11-21T01:55:25;20.90;;;12.02;;
21018;SDS011;10667;51.056;3.732;2023-11-21T01:57:52;20.80;;;12.00;;
21018;SDS011;10667;51.056;3.732;2023-11-21T02:00:18;22.67;;;12.07;;
21018;SDS011;10667;51.056;3.732;2023-11-21T02:02:47;24.30;;;12.07;;
21018;SDS011;10667;51.056;3.732;2023-11-21T02:05:17;21.00;;;12.23;;
21018;SDS011;10667;51.056;3.732;2023-11-21T02:07:44;23.08;;;12.70;;
21018;SDS011;10667;51.056;3.732;2023-11-21T02:10:13;21.95;;;11.27;;
21018;SDS011;10667;51.056;3.732;2023-11-21T02:12:40;19.05;;;10.90;;
21018;SDS011;10667;51.056;3.732;2023-11-21T02:15:07;22.00;;;12.07;;
21018;SDS011;10667;51.056;3.732;2023-11-21T02:17:40;21.83;;;11.68;;
21018;SDS011;10667;51.056;3.732;2023-11-21T02:20:09;19.58;;;11.13;;
21018;SDS011;10667;51.056;3.732;2023-11-21T02:22:40;20.10;;;10.38;;
21018;SDS011;10667;51.056;3.732;2023-11-21T02:25:07;18.23;;;11.27;;
21018;SDS011;10667;51.056;3.732;2023-11-21T02:27:33;20.80;;;12.45;;
21018;SDS011;10667;51.056;3.732;2023-11-21T02:29:59;17.10;;;11.35;;
21018;SDS011;10667;51.056;3.732;2023-11-21T02:32:26;18.90;;;11.40;;
21018;SDS011;10667;51.056;3.732;2023-11-21T02:34:51;20.13;;;11.75;;
21018;SDS011;10667;51.056;3.732;2023-11-21T02:37:18;18.48;;;11.98;;
21018;SDS011;10667;51.056;3.732;2023-11-21T02:39:44;22.05;;;11.07;;
21018;SDS011;10667;51.056;3.732;2023-11-21T02:42:10;21.48;;;11.77;;
21018;SDS011;10667;51.056;3.732;2023-11-21T02:44:36;23.25;;;12.85;;
21018;SDS011;10667;51.056;3.732;2023-11-21T02:47:01;18.73;;;11.95;;
21018;SDS011;10667;51.056;3.732;2023-11-21T02:49:27;20.30;;;11.93;;
21018;SDS011;10667;51.056;3.732;2023-11-21T02:51:53;25.75;;;13.40;;
21018;SDS011;10667;51.056;3.732;2023-11-21T02:54:20;22.70;;;11.98;;
21018;SDS011;10667;51.056;3.732;2023-11-21T02:56:47;24.92;;;12.00;;
21018;SDS011;10667;51.056;3.732;2023-11-21T02:59:14;21.55;;;11.82;;
21018;SDS011;10667;51.056;3.732;2023-11-21T03:01:41;21.63;;;11.25;;
21018;SDS011;10667;51.056;3.732;2023-11-21T03:04:07;22.65;;;12.68;;
21018;SDS011;10667;51.056;3.732;2023-11-21T03:06:32;17.15;;;10.85;;
21018;SDS011;10667;51.056;3.732;2023-11-21T03:08:58;22.30;;;12.13;;
21018;SDS011;10667;51.056;3.732;2023-11-21T03:11:24;28.10;;;13.50;;
21018;SDS011;10667;51.056;3.732;2023-11-21T03:13:50;19.98;;;11.82;;
21018;SDS011;10667;51.056;3.732;2023-11-21T03:16:16;20.48;;;11.70;;
21018;SDS011;10667;51.056;3.732;2023-11-21T03:18:42;22.50;;;12.18;;
21018;SDS011;10667;51.056;3.732;2023-11-21T03:21:07;21.67;;;12.65;;
21018;SDS011;10667;51.056;3.732;2023-11-21T03:23:34;26.63;;;13.05;;
21018;SDS011;10667;51.056;3.732;2023-11-21T03:26:00;25.65;;;13.05;;
21018;SDS011;10667;51.056;3.732;2023-11-21T03:28:26;19.83;;;12.25;;
21018;SDS011;10667;51.056;3.732;2023-11-21T03:30:52;26.60;;;13.50;;
21018;SDS011;10667;51.056;3.732;2023-11-21T03:33:18;21.58;;;12.68;;
21018;SDS011;10667;51.056;3.732;2023-11-21T03:35:44;24.02;;;12.30;;
21018;SDS011;10667;51.056;3.732;2023-11-21T03:38:10;20.55;;;12.90;;
21018;SDS011;10667;51.056;3.732;2023-11-21T03:40:35;21.65;;;12.27;;
21018;SDS011;10667;51.056;3.732;2023-11-21T03:43:01;23.00;;;12.00;;
21018;SDS011;10667;51.056;3.732;2023-11-21T03:45:27;22.15;;;12.43;;
21018;SDS011;10667;51.056;3.732;2023-11-21T03:47:52;24.42;;;12.77;;
21018;SDS011;10667;51.056;3.732;2023-11-21T03:50:18;19.98;;;11.77;;
21018;SDS011;10667;51.056;3.732;2023-11-21T03:52:43;21.38;;;12.23;;
21018;SDS011;10667;51.056;3.732;2023-11-21T03:55:09;21.55;;;12.27;;
21018;SDS011;10667;51.056;3.732;2023-11-21T03:57:35;22.95;;;12.82;;
21018;SDS011;10667;51.056;3.732;2023-11-21T04:00:01;23.65;;;12.43;;
21018;SDS011;10667;51.056;3.732;2023-11-21T04:02:29;23.38;;;12.20;;
21018;SDS011;10667;51.056;3.732;2023-11-21T04:04:56;26.20;;;12.80;;
21018;SDS011;10667;51.056;3.732;2023-11-21T04:07:22;22.55;;;13.30;;
21018;SDS011;10667;51.056;3.732;2023-11-21T04:09:48;18.35;;;11.50;;
21018;SDS011;10667;51.056;3.732;2023-11-21T04:12:13;22.65;;;11.95;;
21018;SDS011;10667;51.056;3.732;2023-11-21T04:14:39;18.67;;;11.50;;
21018;SDS011;10667;51.056;3.732;2023-11-21T04:17:05;21.67;;;11.75;;
21018;SDS011;10667;51.056;3.732;2023-11-21T04:19:30;20.75;;;12.18;;
21018;SDS011;10667;51.056;3.732;2023-11-21T04:21:56;19.42;;;12.07;;
21018;SDS011;10667;51.056;3.732;2023-11-21T04:24:22;20.60;;;11.70;;
21018;SDS011;10667;51.056;3.732;2023-11-21T04:26:47;22.42;;;12.15;;
21018;SDS011;10667;51.056;3.732;2023-11-21T04:29:13;18.90;;;11.07;;
21018;SDS011;10667;51.056;3.732;2023-11-21T04:31:38;20.20;;;11.98;;
21018;SDS011;10667;51.056;3.732;2023-11-21T04:34:04;19.85;;;11.27;;
21018;SDS011;10667;51.056;3.732;2023-11-21T04:36:30;18.65;;;12.10;;
21018;SDS011;10667;51.056;3.732;2023-11-21T04:38:56;17.38;;;10.30;;
21018;SDS011;10667;51.056;3.732;2023-11-21T04:41:21;19.55;;;12.60;;
21018;SDS011;10667;51.056;3.732;2023-11-21T04:43:47;23.15;;;12.95;;
21018;SDS011;10667;51.056;3.732;2023-11-21T04:46:14;21.60;;;12.23;;
21018;SDS011;10667;51.056;3.732;2023-11-21T04:48:40;24.27;;;12.68;;
21018;SDS011;10667;51.056;3.732;2023-11-21T04:51:06;22.70;;;12.27;;
21018;SDS011;10667;51.056;3.732;2023-11-21T04:53:32;23.33;;;12.75;;
21018;SDS011;10667;51.056;3.732;2023-11-21T04:55:57;18.55;;;11.68;;
21018;SDS011;10667;51.056;3.732;2023-11-21T04:58:23;20.23;;;12.18;;
21018;SDS011;10667;51.056;3.732;2023-11-21T05:00:49;19.52;;;11.63;;
21018;SDS011;10667;51.056;3.732;2023-11-21T05:03:15;20.30;;;12.95;;
21018;SDS011;10667;51.056;3.732;2023-11-21T05:05:40;24.63;;;12.15;;
21018;SDS011;10667;51.056;3.732;2023-11-21T05:08:06;21.13;;;12.70;;
21018;SDS011;10667;51.056;3.732;2023-11-21T05:10:31;25.42;;;11.93;;
21018;SDS011;10667;51.056;3.732;2023-11-21T05:12:57;19.33;;;12.23;;
21018;SDS011;10667;51.056;3.732;2023-11-21T05:15:23;30.90;;;14.23;;
21018;SDS011;10667;51.056;3.732;2023-11-21T05:17:49;23.23;;;12.43;;
21018;SDS011;10667;51.056;3.732;2023-11-21T05:20:17;23.23;;;14.45;;
21018;SDS011;10667;51.056;3.732;2023-11-21T05:22:46;21.38;;;13.35;;
21018;SDS011;10667;51.056;3.732;2023-11-21T05:25:13;25.65;;;14.10;;
21018;SDS011;10667;51.056;3.732;2023-11-21T05:27:39;22.88;;;13.45;;
21018;SDS011;10667;51.056;3.732;2023-11-21T05:30:05;22.23;;;13.85;;
21018;SDS011;10667;51.056;3.732;2023-11-21T05:32:37;22.95;;;13.75;;
21018;SDS011;10667;51.056;3.732;2023-11-21T05:35:03;23.92;;;14.60;;
21018;SDS011;10667;51.056;3.732;2023-11-21T05:37:34;21.73;;;13.95;;
21018;SDS011;10667;51.056;3.732;2023-11-21T05:40:01;23.60;;;14.15;;
21018;SDS011;10667;51.056;3.732;2023-11-21T05:42:31;23.40;;;14.07;;
21018;SDS011;10667;51.056;3.732;2023-11-21T05:44:57;25.05;;;13.95;;
21018;SDS011;10667;51.056;3.732;2023-11-21T05:47:24;23.20;;;13.40;;
21018;SDS011;10667;51.056;3.732;2023-11-21T05:49:52;22.70;;;12.88;;
21018;SDS011;10667;51.056;3.732;2023-11-21T05:52:18;23.73;;;13.90;;
21018;SDS011;10667;51.056;3.732;2023-11-21T05:54:44;21.52;;;13.55;;
21018;SDS011;10667;51.056;3.732;2023-11-21T05:57:09;25.08;;;13.98;;
21018;SDS011;10667;51.056;3.732;2023-11-21T05:59:35;21.38;;;13.50;;
21018;SDS011;10667;51.056;3.732;2023-11-21T06:02:01;20.42;;;12.93;;
21018;SDS011;10667;51.056;3.732;2023-11-21T06:04:27;22.70;;;13.32;;
21018;SDS011;10667;51.056;3.732;2023-11-21T06:06:52;22.75;;;13.35;;
21018;SDS011;10667;51.056;3.732;2023-11-21T06:09:18;23.40;;;13.55;;
21018;SDS011;10667;51.056;3.732;2023-11-21T06:11:44;23.52;;;13.90;;
21018;SDS011;10667;51.056;3.732;2023-11-21T06:14:10;24.38;;;14.77;;
21018;SDS011;10667;51.056;3.732;2023-11-21T06:16:36;24.08;;;14.25;;
21018;SDS011;10667;51.056;3.732;2023-11-21T06:19:01;24.02;;;15.05;;
21018;SDS011;10667;51.056;3.732;2023-11-21T06:21:27;22.40;;;14.25;;
21018;SDS011;10667;51.056;3.732;2023-11-21T06:23:53;26.38;;;15.60;;
21018;SDS011;10667;51.056;3.732;2023-11-21T06:26:21;24.13;;;14.05;;
21018;SDS011;10667;51.056;3.732;2023-11-21T06:28:47;26.58;;;14.80;;
21018;SDS011;10667;51.056;3.732;2023-11-21T06:31:16;25.50;;;14.50;;
21018;SDS011;10667;51.056;3.732;2023-11-21T06:33:42;28.63;;;15.10;;
21018;SDS011;10667;51.056;3.732;2023-11-21T06:36:08;24.35;;;15.27;;
21018;SDS011;10667;51.056;3.732;2023-11-21T06:38:36;33.05;;;16.05;;
21018;SDS011;10667;51.056;3.732;2023-11-21T06:41:02;29.73;;;15.55;;
21018;SDS011;10667;51.056;3.732;2023-11-21T06:43:29;33.75;;;17.00;;
21018;SDS011;10667;51.056;3.732;2023-11-21T06:45:56;32.78;;;16.75;;
21018;SDS011;10667;51.056;3.732;2023-11-21T06:48:22;33.50;;;17.63;;
21018;SDS011;10667;51.056;3.732;2023-11-21T06:50:48;29.55;;;16.67;;
21018;SDS011;10667;51.056;3.732;2023-11-21T06:53:13;30.77;;;16.08;;
21018;SDS011;10667;51.056;3.732;2023-11-21T06:55:40;30.88;;;15.85;;
21018;SDS011;10667;51.056;3.732;2023-11-21T06:58:05;29.92;;;15.63;;
21018;SDS011;10667;51.056;3.732;2023-11-21T07:00:31;30.65;;;16.08;;
21018;SDS011;10667;51.056;3.732;2023-11-21T07:02:57;35.28;;;16.63;;
21018;SDS011;10667;51.056;3.732;2023-11-21T07:05:22;35.13;;;16.15;;
21018;SDS011;10667;51.056;3.732;2023-11-21T07:07:48;33.30;;;17.17;;
21018;SDS011;10667;51.056;3.732;2023-11-21T07:10:14;35.78;;;16.65;;
21018;SDS011;10667;51.056;3.732;2023-11-21T07:12:40;31.98;;;15.70;;
21018;SDS011;10667;51.056;3.732;2023-11-21T07:15:06;31.75;;;15.77;;
21018;SDS011;10667;51.056;3.732;2023-11-21T07:17:37;32.85;;;15.43;;
21018;SDS011;10667;51.056;3.732;2023-11-21T07:20:02;37.60;;;16.77;;
21018;SDS011;10667;51.056;3.732;2023-11-21T07:22:28;32.63;;;16.77;;
21018;SDS011;10667;51.056;3.732;2023-11-21T07:24:55;30.08;;;15.48;;
21018;SDS011;10667;51.056;3.732;2023-11-21T07:27:23;33.10;;;15.57;;
21018;SDS011;10667;51.056;3.732;2023-11-21T07:29:49;33.80;;;15.73;;
21018;SDS011;10667;51.056;3.732;2023-11-21T07:32:15;33.40;;;15.45;;
21018;SDS011;10667;51.056;3.732;2023-11-21T07:34:41;26.80;;;15.60;;
21018;SDS011;10667;51.056;3.732;2023-11-21T07:37:07;28.67;;;15.10;;
21018;SDS011;10667;51.056;3.732;2023-11-21T07:39:34;27.38;;;15.02;;
21018;SDS011;10667;51.056;3.732;2023-11-21T07:42:01;25.80;;;13.32;;
21018;SDS011;10667;51.056;3.732;2023-11-21T07:44:29;29.23;;;13.25;;
21018;SDS011;10667;51.056;3.732;2023-11-21T07:46:55;21.17;;;12.90;;
21018;SDS011;10667;51.056;3.732;2023-11-21T07:49:24;25.30;;;13.50;;
21018;SDS011;10667;51.056;3.732;2023-11-21T07:51:50;19.05;;;11.98;;
21018;SDS011;10667;51.056;3.732;2023-11-21T07:54:16;23.10;;;13.00;;
21018;SDS011;10667;51.056;3.732;2023-11-21T07:56:41;19.48;;;10.73;;
21018;SDS011;10667;51.056;3.732;2023-11-21T07:59:07;17.48;;;10.65;;
21018;SDS011;10667;51.056;3.732;2023-11-21T08:01:33;17.42;;;10.07;;
21018;SDS011;10667;51.056;3.732;2023-11-21T08:03:59;21.20;;;11.10;;
21018;SDS011;10667;51.056;3.732;2023-11-21T08:06:28;15.85;;;9.85;;
21018;SDS011;10667;51.056;3.732;2023-11-21T08:08:55;18.30;;;9.73;;
21018;SDS011;10667;51.056;3.732;2023-11-21T08:11:21;14.82;;;9.90;;
21018;SDS011;10667;51.056;3.732;2023-11-21T08:13:47;15.43;;;8.95;;
21018;SDS011;10667;51.056;3.732;2023-11-21T08:16:13;15.82;;;9.13;;
21018;SDS011;10667;51.056;3.732;2023-11-21T08:18:38;15.50;;;9.75;;
21018;SDS011;10667;51.056;3.732;2023-11-21T08:21:05;16.20;;;10.00;;
21018;SDS011;10667;51.056;3.732;2023-11-21T08:23:30;13.43;;;9.60;;
21018;SDS011;10667;51.056;3.732;2023-11-21T08:25:57;15.27;;;9.82;;
21018;SDS011;10667;51.056;3.732;2023-11-21T08:28:22;13.80;;;9.60;;
21018;SDS011;10667;51.056;3.732;2023-11-21T08:30:50;15.55;;;9.48;;
21018;SDS011;10667;51.056;3.732;2023-11-21T08:33:22;17.67;;;10.55;;
21018;SDS011;10667;51.056;3.732;2023-11-21T08:35:48;14.65;;;9.68;;
21018;SDS011;10667;51.056;3.732;2023-11-21T08:38:14;13.93;;;8.85;;
21018;SDS011;10667;51.056;3.732;2023-11-21T08:40:39;18.13;;;10.98;;
21018;SDS011;10667;51.056;3.732;2023-11-21T08:43:05;17.00;;;10.18;;
21018;SDS011;10667;51.056;3.732;2023-11-21T08:45:32;14.43;;;8.82;;
21018;SDS011;10667;51.056;3.732;2023-11-21T08:47:59;13.85;;;8.98;;
21018;SDS011;10667;51.056;3.732;2023-11-21T08:50:26;16.40;;;8.77;;
21018;SDS011;10667;51.056;3.732;2023-11-21T08:52:51;12.75;;;7.93;;
21018;SDS011;10667;51.056;3.732;2023-11-21T08:55:17;12.35;;;7.85;;
21018;SDS011;10667;51.056;3.732;2023-11-21T08:57:44;14.18;;;8.45;;
21018;SDS011;10667;51.056;3.732;2023-11-21T09:00:11;13.98;;;9.48;;
21018;SDS011;10667;51.056;3.732;2023-11-21T09:02:38;14.05;;;8.38;;
21018;SDS011;10667;51.056;3.732;2023-11-21T09:05:06;11.35;;;7.53;;
21018;SDS011;10667;51.056;3.732;2023-11-21T09:07:34;14.60;;;8.43;;
21018;SDS011;10667;51.056;3.732;2023-11-21T09:10:00;13.40;;;8.45;;
21018;SDS011;10667;51.056;3.732;2023-11-21T09:12:26;13.63;;;8.13;;
21018;SDS011;10667;51.056;3.732;2023-11-21T09:14:52;13.55;;;7.30;;
21018;SDS011;10667;51.056;3.732;2023-11-21T09:17:18;12.02;;;8.20;;
21018;SDS011;10667;51.056;3.732;2023-11-21T09:19:44;14.95;;;8.02;;
21018;SDS011;10667;51.056;3.732;2023-11-21T09:22:12;15.52;;;8.05;;
21018;SDS011;10667;51.056;3.732;2023-11-21T09:24:37;14.40;;;7.93;;
21018;SDS011;10667;51.056;3.732;2023-11-21T09:27:03;10.63;;;7.30;;
21018;SDS011;10667;51.056;3.732;2023-11-21T09:29:30;11.38;;;7.47;;
21018;SDS011;10667;51.056;3.732;2023-11-21T09:31:56;14.43;;;7.15;;
21018;SDS011;10667;51.056;3.732;2023-11-21T09:34:24;10.25;;;6.65;;
21018;SDS011;10667;51.056;3.732;2023-11-21T09:36:50;8.73;;;5.78;;
21018;SDS011;10667;51.056;3.732;2023-11-21T09:39:16;8.30;;;6.03;;
21018;SDS011;10667;51.056;3.732;2023-11-21T09:41:46;9.60;;;5.63;;
21018;SDS011;10667;51.056;3.732;2023-11-21T09:44:16;8.52;;;4.72;;
21018;SDS011;10667;51.056;3.732;2023-11-21T09:46:44;8.65;;;4.85;;
21018;SDS011;10667;51.056;3.732;2023-11-21T09:49:13;6.93;;;3.72;;
21018;SDS011;10667;51.056;3.732;2023-11-21T09:51:41;7.93;;;3.65;;
21018;SDS011;10667;51.056;3.732;2023-11-21T09:54:08;9.73;;;3.80;;
21018;SDS011;10667;51.056;3.732;2023-11-21T09:56:37;7.93;;;4.28;;
21018;SDS011;10667;51.056;3.732;2023-11-21T09:59:03;6.22;;;3.05;;
21018;SDS011;10667;51.056;3.732;2023-11-21T10:01:33;4.57;;;2.95;;
21018;SDS011;10667;51.056;3.732;2023-11-21T10:04:01;5.57;;;3.40;;
21018;SDS011;10667;51.056;3.732;2023-11-21T10:06:27;6.97;;;4.07;;
21018;SDS011;10667;51.056;3.732;2023-11-21T10:08:55;11.40;;;5.63;;
21018;SDS011;10667;51.056;3.732;2023-11-21T10:11:25;6.55;;;4.35;;
21018;SDS011;10667;51.056;3.732;2023-11-21T10:13:55;5.70;;;4.10;;
21018;SDS011;10667;51.056;3.732;2023-11-21T10:16:25;9.93;;;4.95;;
21018;SDS011;10667;51.056;3.732;2023-11-21T10:18:52;12.95;;;5.15;;
21018;SDS011;10667;51.056;3.732;2023-11-21T10:21:21;9.82;;;4.60;;
21018;SDS011;10667;51.056;3.732;2023-11-21T10:23:46;9.55;;;4.55;;
21018;SDS011;10667;51.056;3.732;2023-11-21T10:26:12;11.25;;;4.68;;
21018;SDS011;10667;51.056;3.732;2023-11-21T10:29:00;8.23;;;4.68;;
21018;SDS011;10667;51.056;3.732;2023-11-21T10:31:30;14.77;;;4.85;;
21018;SDS011;10667;51.056;3.732;2023-11-21T10:34:12;9.20;;;4.75;;
21018;SDS011;10667;51.056;3.732;2023-11-21T10:36:44;11.80;;;4.57;;
21018;SDS011;10667;51.056;3.732;2023-11-21T10:39:14;8.00;;;4.80;;
21018;SDS011;10667;51.056;3.732;2023-11-21T10:41:44;9.85;;;4.43;;
21018;SDS011;10667;51.056;3.732;2023-11-21T10:44:13;8.88;;;4.03;;
21018;SDS011;10667;51.056;3.732;2023-11-21T10:46:51;9.40;;;3.90;;
21018;SDS011;10667;51.056;3.732;2023-11-21T10:49:21;13.15;;;4.20;;
21018;SDS011;10667;51.056;3.732;2023-11-21T10:51:50;8.27;;;4.00;;
21018;SDS011;10667;51.056;3.732;2023-11-21T10:54:21;8.23;;;3.78;;
21018;SDS011;10667;51.056;3.732;2023-11-21T10:56:49;8.88;;;3.88;;
21018;SDS011;10667;51.056;3.732;2023-11-21T10:59:16;11.23;;;3.60;;
21018;SDS011;10667;51.056;3.732;2023-11-21T11:01:44;12.88;;;4.00;;
21018;SDS011;10667;51.056;3.732;2023-11-21T11:04:11;7.40;;;3.42;;
21018;SDS011;10667;51.056;3.732;2023-11-21T11:06:45;12.70;;;4.00;;
21018;SDS011;10667;51.056;3.732;2023-11-21T11:09:37;9.30;;;4.30;;
21018;SDS011;10667;51.056;3.732;2023-11-21T11:12:02;9.38;;;3.28;;
21018;SDS011;10667;51.056;3.732;2023-11-21T11:14:29;6.13;;;3.80;;
21018;SDS011;10667;51.056;3.732;2023-11-21T11:16:57;9.93;;;3.42;;
21018;SDS011;10667;51.056;3.732;2023-11-21T11:19:25;10.45;;;3.10;;
21018;SDS011;10667;51.056;3.732;2023-11-21T11:30:35;9.30;;;3.30;;
21018;SDS011;10667;51.056;3.732;2023-11-21T11:38:34;9.27;;;3.97;;
21018;SDS011;10667;51.056;3.732;2023-11-21T11:41:04;7.45;;;3.53;;
21018;SDS011;10667;51.056;3.732;2023-11-21T11:43:34;10.45;;;3.28;;
21018;SDS011;10667;51.056;3.732;2023-11-21T11:46:09;9.25;;;3.20;;
21018;SDS011;10667;51.056;3.732;2023-11-21T11:48:39;7.40;;;2.80;;
21018;SDS011;10667;51.056;3.732;2023-11-21T11:51:06;7.53;;;2.50;;
21018;SDS011;10667;51.056;3.732;2023-11-21T11:53:40;12.45;;;3.53;;
21018;SDS011;10667;51.056;3.732;2023-11-21T11:56:18;9.13;;;2.83;;
21018;SDS011;10667;51.056;3.732;2023-11-21T11:58:59;8.90;;;2.58;;
21018;SDS011;10667;51.056;3.732;2023-11-21T12:01:28;8.02;;;2.45;;
21018;SDS011;10667;51.056;3.732;2023-11-21T12:06:45;8.57;;;2.75;;
21018;SDS011;10667;51.056;3.732;2023-11-21T12:09:32;7.05;;;2.70;;
21018;SDS011;10667;51.056;3.732;2023-11-21T12:11:57;8.05;;;2.60;;
21018;SDS011;10667;51.056;3.732;2023-11-21T12:14:23;8.80;;;2.65;;
21018;SDS011;10667;51.056;3.732;2023-11-21T12:16:49;7.57;;;2.83;;
21018;SDS011;10667;51.056;3.732;2023-11-21T12:19:16;5.72;;;2.83;;
21018;SDS011;10667;51.056;3.732;2023-11-21T12:21:42;5.53;;;2.45;;
21018;SDS011;10667;51.056;3.732;2023-11-21T12:24:09;4.60;;;2.67;;
21018;SDS011;10667;51.056;3.732;2023-11-21T12:26:35;8.80;;;3.08;;
21018;SDS011;10667;51.056;3.732;2023-11-21T12:29:03;4.97;;;2.42;;
21018;SDS011;10667;51.056;3.732;2023-11-21T12:31:29;4.57;;;2.70;;
21018;SDS011;10667;51.056;3.732;2023-11-21T12:33:55;4.38;;;2.65;;
21018;SDS011;10667;51.056;3.732;2023-11-21T12:36:22;9.25;;;3.47;;
21018;SDS011;10667;51.056;3.732;2023-11-21T12:38:48;7.72;;;3.38;;
21018;SDS011;10667;51.056;3.732;2023-11-21T12:41:15;4.88;;;2.63;;
21018;SDS011;10667;51.056;3.732;2023-11-21T12:43:42;10.52;;;3.28;;
21018;SDS011;10667;51.056;3.732;2023-11-21T12:46:09;6.60;;;3.33;;
21018;SDS011;10667;51.056;3.732;2023-11-21T12:48:37;6.35;;;3.47;;
21018;SDS011;10667;51.056;3.732;2023-11-21T12:51:07;7.15;;;3.53;;
21018;SDS011;10667;51.056;3.732;2023-11-21T12:53:34;9.02;;;4.75;;
21018;SDS011;10667;51.056;3.732;2023-11-21T12:56:06;9.45;;;4.53;;
21018;SDS011;10667;51.056;3.732;2023-11-21T12:58:34;8.52;;;4.78;;
21018;SDS011;10667;51.056;3.732;2023-11-21T13:01:01;10.73;;;5.05;;
21018;SDS011;10667;51.056;3.732;2023-11-21T13:03:29;9.18;;;5.38;;
21018;SDS011;10667;51.056;3.732;2023-11-21T13:05:55;8.65;;;5.82;;
21018;SDS011;10667;51.056;3.732;2023-11-21T13:08:24;9.00;;;5.40;;
21018;SDS011;10667;51.056;3.732;2023-11-21T13:10:51;12.68;;;6.60;;
21018;SDS011;10667;51.056;3.732;2023-11-21T13:13:21;6.43;;;5.35;;
21018;SDS011;10667;51.056;3.732;2023-11-21T13:15:49;6.30;;;5.07;;
21018;SDS011;10667;51.056;3.732;2023-11-21T13:18:26;6.07;;;4.28;;
21018;SDS011;10667;51.056;3.732;2023-11-21T13:20:53;7.45;;;4.22;;
21018;SDS011;10667;51.056;3.732;2023-11-21T13:23:20;5.50;;;3.78;;
21018;SDS011;10667;51.056;3.732;2023-11-21T13:25:47;6.88;;;3.78;;
21018;SDS011;10667;51.056;3.732;2023-11-21T13:28:14;4.75;;;3.53;;
21018;SDS011;10667;51.056;3.732;2023-11-21T13:30:40;6.93;;;3.45;;
21018;SDS011;10667;51.056;3.732;2023-11-21T13:33:07;4.65;;;3.20;;
21018;SDS011;10667;51.056;3.732;2023-11-21T13:35:34;4.85;;;2.83;;
21018;SDS011;10667;51.056;3.732;2023-11-21T13:38:11;6.25;;;3.10;;
21018;SDS011;10667;51.056;3.732;2023-11-21T13:40:37;5.40;;;3.38;;
21018;SDS011;10667;51.056;3.732;2023-11-21T13:43:09;5.55;;;3.65;;
21018;SDS011;10667;51.056;3.732;2023-11-21T13:45:36;4.25;;;2.78;;
21018;SDS011;10667;51.056;3.732;2023-11-21T13:48:04;9.48;;;3.17;;
21018;SDS011;10667;51.056;3.732;2023-11-21T13:50:35;4.55;;;3.33;;
21018;SDS011;10667;51.056;3.732;2023-11-21T13:53:01;3.95;;;3.05;;
21018;SDS011;10667;51.056;3.732;2023-11-21T13:55:35;3.72;;;3.30;;
21018;SDS011;10667;51.056;3.732;2023-11-21T13:58:02;7.97;;;4.00;;
21018;SDS011;10667;51.056;3.732;2023-11-21T14:00:29;6.20;;;4.20;;
21018;SDS011;10667;51.056;3.732;2023-11-21T14:03:10;7.13;;;5.43;;
21018;SDS011;10667;51.056;3.732;2023-11-21T14:05:47;7.38;;;5.15;;
21018;SDS011;10667;51.056;3.732;2023-11-21T14:08:22;8.48;;;5.80;;
21018;SDS011;10667;51.056;3.732;2023-11-21T14:10:53;13.90;;;5.40;;
21018;SDS011;10667;51.056;3.732;2023-11-21T14:13:23;6.80;;;5.47;;
21018;SDS011;10667;51.056;3.732;2023-11-21T14:15:49;8.18;;;5.53;;
21018;SDS011;10667;51.056;3.732;2023-11-21T14:18:26;8.13;;;5.38;;
21018;SDS011;10667;51.056;3.732;2023-11-21T14:21:15;10.07;;;6.95;;
21018;SDS011;10667;51.056;3.732;2023-11-21T14:23:41;8.80;;;5.50;;
21018;SDS011;10667;51.056;3.732;2023-11-21T14:26:08;6.55;;;5.90;;
21018;SDS011;10667;51.056;3.732;2023-11-21T14:28:33;7.88;;;6.20;;
21018;SDS011;10667;51.056;3.732;2023-11-21T14:31:02;9.27;;;7.05;;
21018;SDS011;10667;51.056;3.732;2023-11-21T14:33:28;13.48;;;7.22;;
21018;SDS011;10667;51.056;3.732;2023-11-21T14:35:53;7.13;;;6.07;;
21018;SDS011;10667;51.056;3.732;2023-11-21T14:38:19;7.20;;;6.35;;
21018;SDS011;10667;51.056;3.732;2023-11-21T14:40:45;8.43;;;6.07;;
21018;SDS011;10667;51.056;3.732;2023-11-21T14:43:12;10.88;;;6.80;;
21018;SDS011;10667;51.056;3.732;2023-11-21T14:45:38;9.68;;;7.30;;
21018;SDS011;10667;51.056;3.732;2023-11-21T14:48:04;9.15;;;5.82;;